Terminal Aerodrome Forecast
Issued by NWS Lake Charles, LA

Home | Current Version | Previous Version | Text Only | Print | Product List | Glossary On
Versions: 1 2 3 4 5 6 7 8 9 10 11 12 13 14 15 16 17 18 19 20
000
FTUS44 KLCH 252330
TAFBPT
TAF
KBPT 252330Z 2600/2624 15008KT P6SM FEW022 SCT030 SCT070
     FM260600 16007KT P6SM BKN025
      TEMPO 2610/2614 OVC008
     FM261500 17012G18KT P6SM VCSH BKN025
     FM261900 16012G18KT P6SM TSRA SCT022 OVC030CB=

USA.gov is the U.S. government's official web portal to all federal, state and local government web resources and services.